createdAt,value
2022-08-23T00:10:06.043Z,99961.53
2022-08-23T00:20:14.930Z,99952.66
2022-08-23T00:30:21.461Z,99944.09
2022-08-23T00:40:27.811Z,99931.97
2022-08-23T00:50:39.581Z,99936.19
2022-08-23T01:00:46.855Z,99914.25
2022-08-23T01:10:58.881Z,99908.25
2022-08-23T01:21:14.691Z,99908.97
2022-08-23T01:31:23.305Z,99916.34
2022-08-23T01:41:29.664Z,99910.63
2022-08-23T01:51:36.039Z,99923.69
2022-08-23T02:01:42.637Z,99917.50
2022-08-23T02:11:49.025Z,99911.38
2022-08-23T02:21:55.483Z,99903.06
2022-08-23T02:32:02.232Z,99900.34
2022-08-23T02:42:11.669Z,99897.09
2022-08-23T02:52:18.815Z,99909.72
2022-08-23T03:02:25.222Z,99907.84
2022-08-23T03:12:32.155Z,99898.72
2022-08-23T03:22:38.972Z,99914.72
2022-08-23T03:32:49.019Z,99926.34
2022-08-23T03:42:55.693Z,99937.91
2022-08-23T03:53:02.008Z,99939.63
2022-08-23T04:03:08.346Z,99942.72
2022-08-23T04:13:14.699Z,99947.87
2022-08-23T04:23:20.013Z,99926.38
2022-08-23T04:33:26.502Z,99926.94
2022-08-23T04:43:32.835Z,99917.50
2022-08-23T04:53:40.755Z,99908.78
2022-08-23T05:03:47.181Z,99916.69
2022-08-23T05:13:53.511Z,99907.34
2022-08-23T05:23:59.848Z,99906.47
2022-08-23T05:34:08.535Z,99915.44
2022-08-23T05:44:15.532Z,100008.00
2022-08-23T05:54:23.377Z,100306.69
2022-08-23T06:04:29.664Z,100724.03
2022-08-23T06:14:36.001Z,100934.25
2022-08-23T06:24:42.380Z,100827.63
2022-08-23T06:34:48.696Z,100871.22
2022-08-23T06:44:55.054Z,100899.09
2022-08-23T06:55:03.440Z,100805.72
2022-08-23T07:05:09.850Z,100607.84
2022-08-23T07:15:16.188Z,100456.53
2022-08-23T07:25:22.493Z,100350.25
2022-08-23T07:35:29.620Z,100275.03
2022-08-23T07:45:37.208Z,100289.53
2022-08-23T07:55:43.523Z,100249.69
2022-08-23T08:05:49.905Z,100227.47
2022-08-23T08:15:56.588Z,100217.72
2022-08-23T08:26:08.105Z,100195.50
2022-08-23T08:36:30.795Z,100218.28
2022-08-23T08:46:49.029Z,100244.81
2022-08-23T08:56:57.871Z,100224.63
2022-08-23T09:07:25.915Z,100218.72
2022-08-23T09:17:46.116Z,100205.94
2022-08-23T09:27:52.521Z,100216.37
2022-08-23T09:38:16.916Z,100210.97
2022-08-23T09:48:43.882Z,100209.00
2022-08-23T09:58:53.744Z,100194.75
2022-08-23T10:09:05.641Z,100208.72
2022-08-23T10:19:19.273Z,100182.28
2022-08-23T10:29:49.800Z,100147.62
2022-08-23T10:40:04.621Z,100146.66
2022-08-23T10:50:15.070Z,100158.00
2022-08-23T11:00:24.443Z,100156.75
2022-08-23T11:10:33.713Z,100148.06
2022-08-23T11:20:52.309Z,100146.06
2022-08-23T11:31:01.508Z,100119.56
2022-08-23T11:41:25.727Z,100081.16
2022-08-23T11:52:10.585Z,100103.34
2022-08-23T12:02:49.083Z,100199.94
2022-08-23T12:13:23.655Z,100317.97
2022-08-23T12:23:30.882Z,100280.63
2022-08-23T12:34:08.850Z,100227.34
2022-08-23T12:44:19.550Z,100190.88
2022-08-23T12:54:35.376Z,100106.59
2022-08-23T13:04:43.234Z,100097.78
2022-08-23T13:14:55.075Z,100107.19
2022-08-23T13:25:29.537Z,100064.28
2022-08-23T13:35:39.193Z,100097.91
2022-08-23T13:45:49.850Z,100053.25
2022-08-23T13:55:59.722Z,100051.59
2022-08-23T14:06:06.123Z,100049.34
2022-08-23T14:16:39.203Z,100026.53
2022-08-23T14:26:50.311Z,99955.25
2022-08-23T14:47:26.026Z,99953.44
2022-08-23T14:57:32.391Z,99967.47
2022-08-23T15:07:38.778Z,99988.34
2022-08-23T15:17:49.581Z,99986.19
2022-08-23T15:27:56.195Z,99986.91
2022-08-23T15:38:02.531Z,100019.03
2022-08-23T15:48:29.170Z,100032.88
2022-08-23T15:58:36.999Z,100045.66
2022-08-23T16:08:49.822Z,100053.13
2022-08-23T16:18:56.260Z,100036.16
2022-08-23T16:29:02.750Z,100059.81
2022-08-23T16:39:09.888Z,100077.22
2022-08-23T16:49:17.797Z,100103.12
2022-08-23T16:59:24.198Z,100116.34
2022-08-23T17:09:30.721Z,100112.31
2022-08-23T17:19:37.626Z,100107.81
2022-08-23T17:29:44.023Z,100133.97
2022-08-23T17:39:51.778Z,100143.88
2022-08-23T17:49:59.686Z,100169.19
2022-08-23T18:00:08.658Z,100180.06
2022-08-23T18:10:15.085Z,100195.66
2022-08-23T18:20:22.320Z,100208.56
2022-08-23T18:31:07.449Z,100224.72
2022-08-23T18:41:15.208Z,100245.47
2022-08-23T18:51:24.792Z,100256.91
2022-08-23T19:01:34.797Z,100274.91
2022-08-23T19:11:42.320Z,100286.81
2022-08-23T19:21:50.484Z,100301.69
2022-08-23T19:31:56.958Z,100323.38
2022-08-23T19:42:06.469Z,100327.41
2022-08-23T19:52:14.860Z,100361.06
2022-08-23T20:02:21.203Z,100347.66
2022-08-23T20:12:30.046Z,100346.19
2022-08-23T20:22:55.221Z,100341.66
2022-08-23T20:33:01.671Z,100363.94
2022-08-23T20:43:08.216Z,100336.75
2022-08-23T20:53:15.783Z,100312.53
2022-08-23T21:03:22.212Z,100305.53
2022-08-23T21:13:28.571Z,100292.72
2022-08-23T21:23:35.599Z,100301.37
2022-08-23T21:33:43.291Z,100288.78
2022-08-23T21:43:49.668Z,100283.03
2022-08-23T21:53:56.114Z,100287.09
2022-08-23T22:04:03.846Z,100293.34
2022-08-23T22:14:21.380Z,100308.75
2022-08-23T22:24:27.702Z,100265.16
2022-08-23T22:34:34.019Z,100258.22
2022-08-23T22:44:40.393Z,100246.47
2022-08-23T22:54:47.127Z,100261.19
2022-08-23T23:04:53.497Z,100263.38
2022-08-23T23:14:59.941Z,100243.16
2022-08-23T23:25:06.710Z,100230.81
2022-08-23T23:35:13.088Z,100224.13
2022-08-23T23:45:22.192Z,100211.28
2022-08-23T23:55:28.560Z,100225.53
